Flight Track Log - Related Links

Times and Time Zones

All times are in EDT time to prevent confusion due to time zone crossing. See the EJM826 flight status page for this flight to view local times or setup timezone preferences in your user account.

Time Position Orientation Groundspeed Altitude Reporting Facility
EDT Latitude Longitude Course Direction KTS MPH feet Rate Location/Type
Sun 04:11:04 PM 31.6697 -96.8575 164° South 498 573 37,400  Level Houston Center
Sun 04:12:06 PM 31.5392 -96.8125 164° South 489 563 37,000 -194 Descending Houston Center
Sun 04:13:08 PM 31.4003 -96.7889 172° South 496 571 37,000  Level Houston Center
Sun 04:14:10 PM 31.2581 -96.7650 172° South 503 579 37,000  Level Houston Center
Sun 04:15:12 PM 31.1161 -96.7414 172° South 506 582 37,000 -1,161 Level Houston Center
Sun 04:16:14 PM 30.9775 -96.7194 172° South 498 573 34,600 -3,000 Descending Houston Center
Sun 04:17:16 PM 30.8136 -96.6931 172° South 500 575 30,800 -3,484 Descending Houston Center
Sun 04:18:18 PM 30.6817 -96.6722 172° South 481 554 27,400 -3,264 Descending Houston Center
Sun 04:19:21 PM 30.5636 -96.6317 164° South 454 522 24,000 -3,216 Descending Houston Center
Sun 04:20:23 PM 30.4797 -96.5317 134° Southeast 434 499 20,700 -3,327 Descending Houston Center
Sun 04:21:02 PM 30.4225 -96.4644 135° Southeast 413 475 18,400 -2,952 Descending Houston Center
Sun 04:22:27 PM 30.3231 -96.3447 134° Southeast 393 452 14,600 -2,813 Descending Houston Center
Sun 04:23:10 PM 30.2617 -96.2719 134° Southeast 367 422 12,400 -2,057 Descending Houston Center
Sun 04:24:12 PM 30.1861 -96.1983 140° Southeast 356 410 11,000 -683 Descending Houston Center
Sun 04:25:13 PM 30.1069 -96.1542 154° Southeast 319 367 11,000  Level Houston Center
Sun 04:26:14 PM 30.0344 -96.0922 144° Southeast 300 345 11,000  Level Houston Center
Sun 04:27:15 PM 29.9667 -96.0350 144° Southeast 300 345 11,000  Level Houston Center
Sun 04:28:16 PM 29.9006 -95.9750 142° Southeast 300 345 11,000  Level Houston Center
Sun 04:29:17 PM 29.8347 -95.9175 143° Southeast 298 343 11,000  Level Houston Center
Sun 04:30:18 PM 29.7794 -95.8397 129° Southeast 301 346 11,000 -878 Level Houston Center
Sun 04:31:20 PM 29.7325 -95.7586 124° Southeast 305 351 9,200 -1,854 Descending Houston Center
Sun 04:32:21 PM 29.6878 -95.6794 123° Southeast 290 334 7,200 -1,082 Descending Houston Center
Sun 04:33:22 PM 29.6511 -95.5997 118° Southeast 282 325 7,000 -541 Descending Houston Center
Sun 04:34:23 PM 29.6283 -95.5086 106° East 276 318 6,100 -395 Descending Houston Center
Sun 04:35:54 PM 29.6083 -95.4106 103° East 243 280 6,000 -49 Descending Houston Center
Sun 04:36:25 PM 29.6019 -95.3581 98° East 244 281 6,000  Level Houston Center
Sun 04:36:56 PM 29.5972 -95.3208 98° East 238 274 6,000  Level Houston Center
Sun 04:37:27 PM 29.5903 -95.2778 100° East 241 277 6,000  Level Houston Center
Sun 04:37:59 PM 29.5875 -95.2450 96° East 241 277 6,000 -702 Level Houston Center
Sun 04:39:01 PM 29.6069 -95.1811 71° East 249 287 4,900 -968 Descending Houston Center
Sun 04:40:03 PM 29.6542 -95.1081 53° Northeast 243 280 4,000 -677 Descending Houston Center
Sun 04:41:05 PM 29.7069 -95.0942 13° North 221 254 3,500 -823 Descending Houston Center
Sun 04:42:07 PM 29.7561 -95.1342 325° Northwest 228 262 2,300 -839 Descending Houston Center
Sun 04:42:38 PM 29.7461 -95.1697 252° West 190 219 2,200 -97 Descending Houston Center
Sun 04:43:09 PM 29.7347 -95.1803 219° Southwest 200 230 2,200 -387 Level Houston Center
Sun 04:44:11 PM 29.7044 -95.2147 225° Southwest 149 171 1,600 -629 Descending Houston Center
Sun 04:45:13 PM 29.6817 -95.2394 223° Southwest 126 145 900 -677 Descending Houston Center
Sun 04:46:15 PM 29.6586 -95.2642 223° Southwest 118 136 200 -677 Descending Houston Center

Login

Don't have an account? Register now (free) for customized features, flight alerts, and more!